Raalte, Netherlands
Current Conditions -  °F | °C
As of 7:25 PM on Friday 28 Nov 2014 (Local Time) from EHDL Reporting Station
Haze Haze  
Wind Chill: 35°   Ceiling: Unl
Heat Index: 41°   Visibility: 4mi
Dew Point: 36°   Wind: 9mph
Humidity: 81%   Direction: 90°E
Pressure: 29.85"   Gusts: NA
Location:  52.39°N, 6.28°E
Report Text: EHDL 281825Z AUTO 09008KT 7000 BR SCT100 05/02 Q1011 WHT
Loading
Personal Weather Stations






























Interactive Weather Map New forecast layout! Learn more

10-Day Weather Forecast

Advertisements
Track Severe Weather on mobile